Time;durP1;ratioP1;P1;durP2;ratioP2;P2;SDS_P1;SDS_P2;PMS_P1;PMS_P2;Temp;Humidity;BMP_temperature;BMP_pressure;BME280_temperature;BME280_humidity;BME280_pressure;Samples;Min_cycle;Max_cycle;Signal;HPM_P1;HPM_P2
2022/08/11 00:01:20;;;;;;;2.38;1.40;;;21.90;52.80;;;;;;5092067;28;20024;-73
2022/08/11 00:03:56;;;;;;;1.70;1.42;;;21.80;53.10;;;;;;5091700;28;20059;-73
2022/08/11 00:06:29;;;;;;;2.13;1.00;;;21.70;53.50;;;;;;5091121;28;20032;-73
2022/08/11 00:08:56;;;;;;;4.57;1.50;;;21.70;53.50;;;;;;5091768;28;20036;-73
2022/08/11 00:11:35;;;;;;;2.38;1.48;;;21.70;53.60;;;;;;5092371;28;20024;-73
2022/08/11 00:14:03;;;;;;;1.85;1.38;;;21.60;54.00;;;;;;5091714;28;20111;-73
2022/08/11 00:16:30;;;;;;;1.80;1.20;;;21.60;54.00;;;;;;5092673;28;20028;-73
2022/08/11 00:18:57;;;;;;;1.38;1.27;;;21.50;54.10;;;;;;5091569;28;20031;-72
2022/08/11 00:21:25;;;;;;;1.88;1.13;;;21.50;54.10;;;;;;5090893;28;20500;-72
2022/08/11 00:23:56;;;;;;;1.90;1.70;;;21.50;54.20;;;;;;5091255;28;20024;-72
2022/08/11 00:26:24;;;;;;;2.13;1.20;;;21.50;54.30;;;;;;5090843;28;20120;-72
2022/08/11 00:28:51;;;;;;;1.92;1.65;;;21.50;54.30;;;;;;5083427;28;20039;-72
2022/08/11 00:31:30;;;;;;;4.13;1.60;;;21.40;54.30;;;;;;5090207;28;20028;-72
2022/08/11 00:33:58;;;;;;;2.55;1.10;;;21.40;54.50;;;;;;5072177;28;20048;-72
2022/08/11 00:36:38;;;;;;;3.60;1.40;;;21.30;54.60;;;;;;5070295;28;20048;-72
2022/08/11 00:39:05;;;;;;;5.78;1.75;;;21.30;54.80;;;;;;5072849;28;20024;-72
2022/08/11 00:41:46;;;;;;;3.45;1.67;;;21.20;55.30;;;;;;5077930;28;20054;-73
2022/08/11 00:44:40;;;;;;;2.37;1.30;;;21.30;54.90;;;;;;5076967;28;20086;-73
2022/08/11 00:47:26;;;;;;;3.92;1.40;;;21.20;54.90;;;;;;5078661;28;20258;-73
2022/08/11 00:50:16;;;;;;;4.10;1.30;;;21.20;54.60;;;;;;5077530;28;20051;-73
2022/08/11 00:52:50;;;;;;;2.97;1.40;;;21.20;54.80;;;;;;5077397;28;20052;-73
2022/08/11 00:55:54;;;;;;;1.83;1.35;;;21.20;54.80;;;;;;5078003;28;20060;-73
2022/08/11 00:58:44;;;;;;;1.92;1.65;;;21.20;54.70;;;;;;5036223;28;20048;-73
2022/08/11 01:01:15;;;;;;;2.40;1.45;;;21.20;54.80;;;;;;5078049;28;20025;-73
2022/08/11 01:04:19;;;;;;;3.20;1.40;;;21.00;54.90;;;;;;5077427;28;20024;-72
2022/08/11 01:07:12;;;;;;;3.40;1.45;;;21.00;55.30;;;;;;5077220;28;20029;-73
2022/08/11 01:10:11;;;;;;;2.13;1.33;;;21.00;55.10;;;;;;5078556;28;20118;-73
2022/08/11 01:12:45;;;;;;;2.10;1.33;;;21.00;55.30;;;;;;5078298;28;20021;-72
2022/08/11 01:15:40;;;;;;;5.25;1.40;;;20.90;55.30;;;;;;5076677;28;20444;-73
2022/08/11 01:18:28;;;;;;;2.65;1.40;;;20.80;55.60;;;;;;5078391;28;20024;-73
2022/08/11 01:21:08;;;;;;;2.03;1.50;;;20.80;55.60;;;;;;5077014;28;20124;-73
2022/08/11 01:24:11;;;;;;;2.13;1.27;;;20.80;55.60;;;;;;5077581;28;20040;-73
2022/08/11 01:27:09;;;;;;;5.15;1.40;;;20.70;55.80;;;;;;5078273;28;20512;-73
2022/08/11 01:30:07;;;;;;;3.75;1.30;;;20.70;56.00;;;;;;5077961;28;20516;-72
2022/08/11 01:33:10;;;;;;;6.10;1.42;;;20.70;56.00;;;;;;5077535;28;20112;-72
2022/08/11 01:35:57;;;;;;;5.57;1.70;;;20.60;56.20;;;;;;5077358;28;20056;-72
2022/08/11 01:38:53;;;;;;;2.20;1.50;;;20.60;56.20;;;;;;5075752;28;20093;-72
2022/08/11 01:44:51;;;;;;;2.03;1.42;;;20.60;56.30;;;;;;5089714;28;20054;-73
2022/08/11 01:50:15;;;;;;;3.72;1.40;;;20.60;56.30;;;;;;5097611;28;20115;-73
2022/08/11 01:53:13;;;;;;;2.13;1.30;;;20.60;56.30;;;;;;5093110;28;20081;-72
2022/08/11 01:55:59;;;;;;;3.92;1.30;;;20.50;56.50;;;;;;5095031;28;20036;-73
2022/08/11 01:58:56;;;;;;;2.05;1.48;;;20.50;56.50;;;;;;5094262;28;20024;-73
2022/08/11 02:01:57;;;;;;;4.15;1.50;;;20.50;56.60;;;;;;5094424;28;20507;-73
2022/08/11 02:04:54;;;;;;;4.03;1.60;;;20.50;56.70;;;;;;5071577;28;20072;-73
2022/08/11 02:07:49;;;;;;;2.53;1.30;;;20.50;56.80;;;;;;5094438;28;20056;-73
2022/08/11 02:13:43;;;;;;;1.98;1.55;;;20.40;57.00;;;;;;5094318;28;20059;-72
2022/08/11 02:16:11;;;;;;;2.10;1.60;;;20.40;57.00;;;;;;5093507;28;20024;-72
2022/08/11 02:24:29;;;;;;;3.45;1.42;;;20.30;57.00;;;;;;5093867;28;20035;-73
2022/08/11 02:27:13;;;;;;;1.83;1.67;;;20.30;57.10;;;;;;5093324;28;20425;-73
2022/08/11 02:29:50;;;;;;;1.50;1.38;;;20.30;57.30;;;;;;5094338;28;20038;-73
2022/08/11 02:35:26;;;;;;;2.90;1.65;;;20.20;57.50;;;;;;5094228;28;20594;-73
2022/08/11 02:38:31;;;;;;;3.97;1.40;;;20.10;57.60;;;;;;5092798;28;20028;-73
2022/08/11 02:44:10;;;;;;;1.60;1.30;;;20.00;58.10;;;;;;5094299;28;20149;-73
2022/08/11 02:47:00;;;;;;;4.80;1.70;;;20.00;58.00;;;;;;5092133;28;20199;-72
2022/08/11 02:49:57;;;;;;;4.13;1.50;;;20.00;58.00;;;;;;5093659;28;20510;-73
2022/08/11 02:52:39;;;;;;;3.00;1.52;;;20.00;58.10;;;;;;5093064;28;20036;-73
2022/08/11 02:55:05;;;;;;;3.30;1.65;;;20.00;58.10;;;;;;5092718;28;20089;-73
2022/08/11 02:57:56;;;;;;;3.08;1.55;;;19.90;58.10;;;;;;5093071;28;20445;-73
2022/08/11 03:00:25;;;;;;;2.15;1.80;;;19.90;58.50;;;;;;5091928;28;20032;-73
2022/08/11 03:03:32;;;;;;;4.15;2.00;;;19.70;58.60;;;;;;5092723;28;20465;-73
2022/08/11 03:06:22;;;;;;;4.03;2.10;;;19.70;58.90;;;;;;5031317;28;20029;-73
2022/08/11 03:09:08;;;;;;;4.57;2.20;;;19.60;59.30;;;;;;5014741;28;20152;-73
2022/08/11 03:18:11;;;;;;;6.82;3.42;;;19.70;59.50;;;;;;5031151;28;20033;-73
2022/08/11 03:20:44;;;;;;;5.97;2.88;;;19.60;59.50;;;;;;5013741;28;20057;-74
2022/08/11 03:23:16;;;;;;;5.85;3.15;;;19.60;59.70;;;;;;5030879;28;20033;-73
2022/08/11 03:26:11;;;;;;;8.38;3.72;;;19.60;59.90;;;;;;5030647;28;20457;-74
2022/08/11 03:29:00;;;;;;;7.25;3.38;;;19.60;60.00;;;;;;5007382;28;20049;-74
2022/08/11 03:31:35;;;;;;;5.65;3.65;;;19.50;60.10;;;;;;5019771;28;20033;-73
2022/08/11 03:34:06;;;;;;;9.27;3.50;;;19.50;60.30;;;;;;5030802;28;20033;-72
2022/08/11 03:36:45;;;;;;;6.75;3.53;;;19.50;60.50;;;;;;5045382;28;20396;-72
2022/08/11 03:39:39;;;;;;;7.53;3.80;;;19.50;60.40;;;;;;5092888;28;20107;-72
2022/08/11 03:42:42;;;;;;;6.03;3.63;;;19.50;60.40;;;;;;5091888;28;20401;-72
2022/08/11 03:45:32;;;;;;;5.63;2.83;;;19.40;60.50;;;;;;5093346;28;20027;-72
2022/08/11 03:48:29;;;;;;;9.20;3.20;;;19.40;60.80;;;;;;5091791;28;20163;-72
2022/08/11 03:51:31;;;;;;;10.68;2.97;;;19.40;60.70;;;;;;5091748;28;20077;-72
2022/08/11 03:54:22;;;;;;;5.68;3.20;;;19.30;61.00;;;;;;5091429;28;20085;-72
2022/08/11 03:57:07;;;;;;;5.00;2.70;;;19.30;61.10;;;;;;5091766;28;20036;-72
2022/08/11 03:59:55;;;;;;;7.07;3.10;;;19.30;60.80;;;;;;5090766;28;20077;-72
2022/08/11 04:02:33;;;;;;;6.75;3.05;;;19.40;60.50;;;;;;5091022;28;20060;-72
2022/08/11 04:05:18;;;;;;;4.50;2.63;;;19.40;60.60;;;;;;5091382;28;20035;-72
2022/08/11 04:08:34;;;;;;;6.03;3.13;;;19.40;60.70;;;;;;5092244;28;20028;-72
2022/08/11 04:11:40;;;;;;;8.35;2.85;;;19.40;60.70;;;;;;5013552;28;20021;-73
2022/08/11 04:18:00;;;;;;;18.08;8.13;;;19.20;61.00;;;;;;5065321;28;20043;-73
2022/08/11 04:20:29;;;;;;;23.23;8.10;;;19.30;61.10;;;;;;5090378;28;20028;-72
2022/08/11 04:23:18;;;;;;;18.80;7.70;;;19.40;60.90;;;;;;5091049;28;20020;-72
2022/08/11 04:25:44;;;;;;;18.40;7.75;;;19.40;60.90;;;;;;5091799;28;20043;-72
2022/08/11 04:28:34;;;;;;;19.10;7.82;;;19.40;60.60;;;;;;5091094;28;20024;-72
2022/08/11 04:31:21;;;;;;;16.30;6.82;;;19.40;61.20;;;;;;5091339;28;20020;-72
2022/08/11 04:34:02;;;;;;;18.60;7.03;;;19.30;61.60;;;;;;5090784;28;20035;-72
2022/08/11 04:40:27;;;;;;;19.52;8.02;;;19.20;62.00;;;;;;5091973;28;20039;-72
2022/08/11 04:43:21;;;;;;;22.77;8.52;;;19.10;62.30;;;;;;5092152;28;20035;-73
2022/08/11 04:46:13;;;;;;;21.38;8.80;;;19.10;62.40;;;;;;5090610;28;20024;-73
2022/08/11 05:01:41;;;;;;;13.38;4.88;;;19.00;62.80;;;;;;5091825;28;20081;-73
2022/08/11 05:05:29;;;;;;;6.65;3.75;;;19.10;62.80;;;;;;5090686;28;20024;-73
2022/08/11 05:07:21;;;;;;;5.90;3.65;;;19.10;62.30;;;;;;5091868;28;20039;-73
2022/08/11 05:10:09;;;;;;;7.82;3.83;;;19.20;62.40;;;;;;5091291;28;20020;-73
2022/08/11 05:12:48;;;;;;;6.53;3.70;;;19.20;62.30;;;;;;5089972;28;20056;-72
2022/08/11 05:36:24;;;;;;;6.75;2.05;;;19.60;62.10;;;;;;5094911;28;20128;-72
2022/08/11 05:58:36;;;;;;;5.07;2.10;;;20.00;61.50;;;;;;5094192;28;20082;-72
2022/08/11 06:01:02;;;;;;;5.10;2.03;;;20.00;61.50;;;;;;5093973;28;20043;-72
2022/08/11 06:03:31;;;;;;;6.13;1.80;;;20.10;61.50;;;;;;5094417;28;20074;-72
2022/08/11 06:05:58;;;;;;;4.25;1.75;;;20.10;61.20;;;;;;5094720;28;20039;-72
2022/08/11 06:08:34;;;;;;;4.57;1.77;;;20.20;61.10;;;;;;5093358;28;20028;-72
2022/08/11 06:11:03;;;;;;;3.05;1.70;;;20.20;61.20;;;;;;5095350;28;20404;-72
2022/08/11 06:13:30;;;;;;;4.13;1.70;;;20.30;61.10;;;;;;5092948;28;20047;-72
2022/08/11 06:15:57;;;;;;;4.30;1.80;;;20.30;61.00;;;;;;5094680;28;20100;-72
2022/08/11 06:18:24;;;;;;;1.63;1.50;;;20.40;60.90;;;;;;5094577;28;20028;-72
2022/08/11 06:20:57;;;;;;;3.25;1.80;;;20.40;60.60;;;;;;5092603;28;20039;-73
2022/08/11 06:23:29;;;;;;;4.90;1.50;;;20.60;60.50;;;;;;5093004;28;20028;-72
2022/08/11 06:25:57;;;;;;;2.97;1.73;;;20.60;60.50;;;;;;5094501;28;20032;-72
2022/08/11 06:28:35;;;;;;;3.00;1.50;;;20.60;60.40;;;;;;5093161;28;20487;-72
2022/08/11 06:31:11;;;;;;;3.63;1.83;;;20.70;60.20;;;;;;5093248;28;20450;-72
2022/08/11 06:33:52;;;;;;;3.92;1.52;;;20.80;60.10;;;;;;5092449;28;20070;-72
2022/08/11 06:36:39;;;;;;;2.90;1.57;;;20.80;59.80;;;;;;5093115;28;20412;-72
2022/08/11 06:39:53;;;;;;;2.75;1.80;;;20.90;59.80;;;;;;5092733;28;20325;-72
2022/08/11 06:42:43;;;;;;;4.25;1.70;;;21.00;59.70;;;;;;5067091;28;20039;-72
2022/08/11 06:45:49;;;;;;;2.75;1.63;;;21.10;59.40;;;;;;5094141;28;20031;-72
2022/08/11 06:48:17;;;;;;;3.53;1.70;;;21.20;59.50;;;;;;5085587;28;20055;-72
2022/08/11 06:51:10;;;;;;;3.10;1.35;;;21.30;59.00;;;;;;5093203;28;20016;-72
2022/08/11 06:53:50;;;;;;;4.65;1.70;;;21.30;58.80;;;;;;5091825;28;20119;-73
2022/08/11 07:02:14;;;;;;;2.75;1.50;;;21.50;58.50;;;;;;5093129;28;20035;-73
2022/08/11 07:04:43;;;;;;;1.92;1.50;;;21.60;58.40;;;;;;5092992;28;20056;-73
2022/08/11 07:16:46;;;;;;;3.20;1.40;;;21.90;58.00;;;;;;5091789;28;20462;-75
2022/08/11 07:30:57;;;;;;;5.30;1.75;;;22.30;57.30;;;;;;5080429;28;20047;-74
2022/08/11 07:33:28;;;;;;;6.55;1.80;;;22.40;57.00;;;;;;5078633;28;20111;-73
2022/08/11 07:35:59;;;;;;;6.68;1.80;;;22.40;56.90;;;;;;5079233;28;20048;-75
2022/08/11 07:38:42;;;;;;;3.17;1.77;;;22.40;56.90;;;;;;5077594;28;20032;-72
2022/08/11 07:41:16;;;;;;;2.78;1.52;;;22.50;56.70;;;;;;5081590;28;20029;-72
2022/08/11 07:43:48;;;;;;;3.95;1.60;;;22.60;56.60;;;;;;5087412;28;20388;-73
2022/08/11 07:54:28;;;;;;;3.83;1.70;;;22.80;56.60;;;;;;5077923;28;20530;-77
2022/08/11 07:56:55;;;;;;;3.15;1.48;;;22.90;56.50;;;;;;5090770;28;20812;-76
2022/08/11 08:18:39;;;;;;;3.63;1.60;;;23.40;55.60;;;;;;5071229;28;20089;-74
2022/08/11 08:21:11;;;;;;;4.35;2.10;;;23.40;55.70;;;;;;5072151;28;20055;-74
2022/08/11 08:23:45;;;;;;;2.35;1.80;;;23.40;55.70;;;;;;5071594;28;20103;-73
2022/08/11 08:31:50;;;;;;;5.28;1.52;;;23.80;55.20;;;;;;5072189;28;20031;-79
2022/08/11 08:34:17;;;;;;;5.88;2.00;;;23.70;55.30;;;;;;5071712;28;20144;-78
2022/08/11 08:36:49;;;;;;;3.78;1.60;;;23.60;55.40;;;;;;5076606;28;20032;-79
2022/08/11 08:39:19;;;;;;;3.88;1.77;;;23.70;55.10;;;;;;5071672;28;20452;-78
2022/08/11 08:41:49;;;;;;;23.42;2.50;;;23.80;55.20;;;;;;5070889;28;20097;-80
2022/08/11 08:44:16;;;;;;;3.55;1.85;;;23.90;55.60;;;;;;5072847;28;20024;-77
2022/08/11 08:46:44;;;;;;;2.92;1.73;;;23.90;54.80;;;;;;5071446;28;20425;-77
2022/08/11 08:49:17;;;;;;;4.53;2.97;;;23.90;55.00;;;;;;5072846;28;20067;-78
2022/08/11 08:51:45;;;;;;;8.20;1.92;;;24.00;55.10;;;;;;5070767;28;20119;-77
2022/08/11 08:54:16;;;;;;;4.30;1.52;;;24.00;54.80;;;;;;5071487;28;20029;-77
2022/08/11 08:56:44;;;;;;;7.07;1.70;;;24.10;54.60;;;;;;5072056;28;20040;-78
2022/08/11 08:59:13;;;;;;;4.00;1.80;;;24.10;54.40;;;;;;5076803;28;20488;-77
2022/08/11 09:01:49;;;;;;;4.40;1.90;;;24.10;54.20;;;;;;5094851;28;20039;-76
2022/08/11 09:04:17;;;;;;;4.72;1.70;;;24.20;54.50;;;;;;5095903;28;20023;-77
2022/08/11 09:06:43;;;;;;;4.70;1.85;;;24.20;54.30;;;;;;5088539;28;20048;-79
2022/08/11 09:09:11;;;;;;;5.78;2.10;;;24.30;53.80;;;;;;5075608;28;20086;-79
2022/08/11 09:11:49;;;;;;;2.47;1.50;;;24.30;54.00;;;;;;5075103;28;20036;-77
2022/08/11 09:14:17;;;;;;;5.15;1.65;;;24.30;54.30;;;;;;5076645;28;20036;-79
2022/08/11 09:16:43;;;;;;;3.22;1.77;;;24.50;53.40;;;;;;5074710;28;20033;-79
2022/08/11 09:19:09;;;;;;;5.57;1.95;;;24.50;53.40;;;;;;5076030;28;20039;-78
2022/08/11 09:21:40;;;;;;;2.13;1.50;;;24.50;53.40;;;;;;5075136;28;20161;-77
2022/08/11 09:27:01;;;;;;;3.88;1.80;;;24.60;53.60;;;;;;5075448;28;20105;-79
2022/08/11 09:29:28;;;;;;;2.40;1.38;;;24.60;54.00;;;;;;5076100;28;20025;-79
2022/08/11 09:31:55;;;;;;;3.67;1.75;;;24.70;53.30;;;;;;5075736;28;20423;-79
2022/08/11 09:34:21;;;;;;;4.50;1.63;;;24.80;53.30;;;;;;5075347;28;20028;-79
2022/08/11 09:42:22;;;;;;;3.97;1.50;;;25.10;52.00;;;;;;5076007;28;20044;-78
2022/08/11 09:44:48;;;;;;;3.22;1.70;;;25.20;51.80;;;;;;5074393;28;20517;-78
2022/08/11 09:47:17;;;;;;;11.02;1.88;;;25.20;51.60;;;;;;5076024;28;20024;-78
2022/08/11 09:49:44;;;;;;;2.38;1.50;;;25.30;51.40;;;;;;5074708;28;20595;-78
2022/08/11 09:52:13;;;;;;;1.75;1.58;;;25.40;51.30;;;;;;5075084;28;20370;-78
2022/08/11 09:54:41;;;;;;;5.95;1.60;;;25.40;51.30;;;;;;5075616;28;20351;-78
2022/08/11 09:59:52;;;;;;;2.53;1.60;;;25.60;50.70;;;;;;5075168;28;20041;-79
2022/08/11 10:02:26;;;;;;;2.80;1.45;;;25.60;50.70;;;;;;5074786;28;20028;-78
2022/08/11 10:07:00;;;;;;;3.65;1.58;;;25.80;50.50;;;;;;5074254;28;20461;-78
2022/08/11 10:07:49;;;;;;;2.10;1.38;;;25.80;50.50;;;;;;5074738;28;20039;-78
2022/08/11 10:10:21;;;;;;;1.55;1.40;;;26.00;50.30;;;;;;5074866;28;20025;-78
2022/08/11 10:12:56;;;;;;;3.13;1.48;;;26.10;49.70;;;;;;5074532;28;20017;-78
2022/08/11 10:15:38;;;;;;;2.70;1.50;;;26.20;48.80;;;;;;5075841;28;20428;-78
2022/08/11 10:21:13;;;;;;;4.47;1.50;;;26.20;49.20;;;;;;5075229;28;20036;-78
2022/08/11 10:34:44;;;;;;;4.35;1.50;;;26.50;48.10;;;;;;5074477;28;20117;-79
2022/08/11 10:37:10;;;;;;;5.85;1.52;;;26.60;48.60;;;;;;5074110;28;20025;-79
2022/08/11 10:39:38;;;;;;;3.35;1.50;;;26.60;47.80;;;;;;5073873;28;20033;-78
2022/08/11 10:44:52;;;;;;;1.90;1.70;;;26.80;47.30;;;;;;5074531;28;20039;-78
2022/08/11 10:47:34;;;;;;;3.33;1.35;;;26.90;47.20;;;;;;5073612;28;20131;-79
2022/08/11 11:01:10;;;;;;;3.17;1.40;;;27.20;46.00;;;;;;5074757;28;20040;-79
2022/08/11 11:03:36;;;;;;;2.78;1.27;;;27.10;45.90;;;;;;5073177;28;20031;-78
2022/08/11 11:06:18;;;;;;;2.20;1.10;;;27.20;45.70;;;;;;5072767;28;20025;-79
2022/08/11 11:08:52;;;;;;;2.03;1.40;;;27.30;45.20;;;;;;5074029;28;20029;-79
2022/08/11 11:11:20;;;;;;;2.58;1.30;;;27.30;45.00;;;;;;5073662;28;20112;-78
2022/08/11 11:19:24;;;;;;;3.58;1.38;;;27.60;44.80;;;;;;5073931;28;20036;-79
2022/08/11 11:21:54;;;;;;;2.22;1.20;;;27.60;44.50;;;;;;5073528;28;20025;-78
2022/08/11 11:24:40;;;;;;;2.97;1.38;;;27.70;44.60;;;;;;5071922;28;20043;-79
2022/08/11 11:27:31;;;;;;;3.13;1.77;;;27.80;44.20;;;;;;5072537;28;20386;-79
2022/08/11 11:30:17;;;;;;;3.35;1.00;;;27.80;44.00;;;;;;5073403;28;20470;-78
2022/08/11 11:33:18;;;;;;;2.60;1.27;;;27.90;43.40;;;;;;5072443;28;20024;-78
2022/08/11 11:35:56;;;;;;;1.77;1.23;;;28.00;43.10;;;;;;5046049;28;20072;-77
2022/08/11 11:38:22;;;;;;;2.45;1.23;;;28.20;43.10;;;;;;5072524;28;20032;-79
2022/08/11 11:41:23;;;;;;;3.75;1.10;;;28.30;42.70;;;;;;5071823;28;20043;-78
2022/08/11 11:43:35;;;;;;;3.28;1.13;;;28.30;42.40;;;;;;5073260;28;20024;-79
2022/08/11 11:46:03;;;;;;;2.70;1.35;;;28.40;41.70;;;;;;5071849;28;20078;-79
2022/08/11 11:48:31;;;;;;;3.92;1.20;;;28.40;41.80;;;;;;5072372;28;20120;-78
2022/08/11 11:50:57;;;;;;;1.52;1.30;;;28.50;41.90;;;;;;5073071;28;20385;-79
2022/08/11 11:53:23;;;;;;;5.95;1.20;;;28.60;41.60;;;;;;5073597;28;20033;-79
2022/08/11 11:55:49;;;;;;;1.20;0.90;;;28.60;41.40;;;;;;5073015;28;20032;-78
2022/08/11 12:01:18;;;;;;;2.30;1.30;;;28.70;41.30;;;;;;5072892;28;20503;-79
2022/08/11 12:03:48;;;;;;;1.38;0.95;;;28.70;41.40;;;;;;5072280;28;20020;-79
2022/08/11 12:06:15;;;;;;;1.70;1.13;;;28.70;41.30;;;;;;5072251;28;20050;-79
2022/08/11 12:08:42;;;;;;;1.98;1.00;;;28.80;41.60;;;;;;5073344;28;20098;-78
2022/08/11 12:13:58;;;;;;;2.40;0.95;;;28.90;40.70;;;;;;5072787;28;20036;-78
2022/08/11 12:16:25;;;;;;;1.38;1.17;;;29.00;40.70;;;;;;5072014;28;20066;-78
2022/08/11 12:18:55;;;;;;;0.80;0.80;;;29.10;40.70;;;;;;5071440;28;20032;-78
2022/08/11 12:21:22;;;;;;;2.83;1.10;;;29.10;40.60;;;;;;5071887;28;20127;-79
2022/08/11 12:27:19;;;;;;;3.22;1.08;;;29.20;40.10;;;;;;5073196;28;20035;-78
2022/08/11 12:29:27;;;;;;;2.17;1.10;;;29.30;39.70;;;;;;5072383;28;20033;-79
2022/08/11 12:31:57;;;;;;;1.38;0.88;;;29.40;39.50;;;;;;5072336;28;20033;-78
2022/08/11 12:34:26;;;;;;;1.75;1.02;;;29.60;39.30;;;;;;5071770;28;20124;-78
2022/08/11 12:37:02;;;;;;;1.77;0.98;;;29.60;39.00;;;;;;5070942;28;20036;-78
2022/08/11 12:45:26;;;;;;;1.02;0.80;;;29.80;38.70;;;;;;5072245;28;20116;-78
2022/08/11 12:53:31;;;;;;;1.60;1.20;;;29.90;38.80;;;;;;5072822;28;20498;-78
2022/08/11 12:58:48;;;;;;;;;;;29.90;38.60;;;;;;5073365;28;20086;-79
2022/08/11 13:06:44;;;;;;;2.45;0.98;;;30.20;38.20;;;;;;5073596;28;20039;-89
2022/08/11 13:09:11;;;;;;;1.67;0.90;;;30.30;38.00;;;;;;5089089;28;20028;-86
2022/08/11 13:14:24;;;;;;;5.03;1.20;;;30.80;37.50;;;;;;5073142;28;20040;-91
2022/08/11 13:19:35;;;;;;;1.70;0.77;;;31.20;37.60;;;;;;5073160;28;20124;-83
2022/08/11 13:22:04;;;;;;;1.73;0.98;;;31.40;37.30;;;;;;5088383;28;20111;-84
2022/08/11 13:24:33;;;;;;;1.33;1.10;;;31.60;36.80;;;;;;5073035;28;20029;-85
2022/08/11 13:26:58;;;;;;;2.83;1.08;;;31.80;36.80;;;;;;5091608;28;20362;-89
2022/08/11 13:29:26;;;;;;;3.22;1.08;;;32.00;36.40;;;;;;5092720;28;20036;-87
2022/08/11 13:31:54;;;;;;;3.70;0.90;;;32.30;36.40;;;;;;5091935;28;20058;-88
2022/08/11 13:34:23;;;;;;;2.30;1.13;;;32.90;36.00;;;;;;5092156;28;20052;-87
2022/08/11 13:36:52;;;;;;;1.42;1.17;;;33.60;35.30;;;;;;5091946;28;20032;-91
2022/08/11 13:39:18;;;;;;;2.83;0.90;;;34.30;34.60;;;;;;5086264;28;20024;-90
2022/08/11 13:41:46;;;;;;;1.40;1.00;;;34.90;34.10;;;;;;5073066;28;20040;-84
2022/08/11 13:44:14;;;;;;;3.10;0.90;;;35.30;33.50;;;;;;5087795;28;20032;-87
2022/08/11 13:46:42;;;;;;;0.85;0.80;;;34.90;33.80;;;;;;5072630;28;20032;-87
2022/08/11 13:49:08;;;;;;;1.23;0.90;;;34.90;34.10;;;;;;5084215;28;20445;-84
2022/08/11 13:51:37;;;;;;;1.35;1.10;;;34.90;34.10;;;;;;5082428;28;20024;-85
2022/08/11 13:54:17;;;;;;;2.17;1.00;;;34.90;33.80;;;;;;5091211;28;20122;-84
2022/08/11 13:56:46;;;;;;;2.35;0.85;;;34.50;34.20;;;;;;5095092;28;20024;-80
2022/08/11 13:59:19;;;;;;;2.17;1.17;;;34.30;34.20;;;;;;5094432;28;20773;-84
2022/08/11 14:01:49;;;;;;;4.47;1.08;;;34.10;34.30;;;;;;5080675;28;20052;-79
2022/08/11 14:04:25;;;;;;;2.38;1.27;;;33.90;34.50;;;;;;5090044;28;20032;-80
2022/08/11 14:06:54;;;;;;;2.63;0.90;;;33.80;34.50;;;;;;5082079;28;20111;-82
2022/08/11 14:09:25;;;;;;;1.90;1.17;;;33.70;34.40;;;;;;5083972;28;20086;-82
2022/08/11 14:14:42;;;;;;;1.83;1.15;;;33.90;34.20;;;;;;5081086;28;20071;-83
2022/08/11 14:17:09;;;;;;;3.78;1.25;;;33.80;34.40;;;;;;5084829;28;20031;-82
2022/08/11 14:19:40;;;;;;;1.85;0.90;;;33.60;34.50;;;;;;5087976;28;20032;-85
2022/08/11 14:22:06;;;;;;;3.35;1.20;;;33.40;34.30;;;;;;5077674;28;20394;-84
2022/08/11 14:24:38;;;;;;;4.60;1.08;;;33.20;34.80;;;;;;5090683;28;20024;-86
2022/08/11 14:27:06;;;;;;;2.28;0.90;;;32.90;34.80;;;;;;5083294;28;20024;-85
2022/08/11 14:29:37;;;;;;;3.33;0.85;;;32.80;35.10;;;;;;5081728;28;20025;-84
2022/08/11 14:32:08;;;;;;;1.13;1.02;;;32.60;35.10;;;;;;5090587;28;20031;-85
2022/08/11 14:34:37;;;;;;;4.72;0.90;;;32.60;35.40;;;;;;5078482;28;20127;-82
2022/08/11 14:37:07;;;;;;;1.58;1.00;;;32.50;35.30;;;;;;5085283;28;20021;-81
2022/08/11 14:39:42;;;;;;;1.02;0.90;;;32.50;35.00;;;;;;5087544;28;20385;-83
2022/08/11 14:47:44;;;;;;;3.88;1.02;;;32.80;35.10;;;;;;5095673;28;20546;-87
2022/08/11 14:50:13;;;;;;;1.77;1.02;;;33.20;34.90;;;;;;5077212;28;20073;-85
2022/08/11 14:52:53;;;;;;;0.90;0.85;;;32.80;34.80;;;;;;5089128;28;20024;-87
2022/08/11 14:58:11;;;;;;;1.95;0.93;;;32.50;35.10;;;;;;5093518;28;20043;-83
2022/08/11 15:00:38;;;;;;;2.60;0.88;;;32.40;35.60;;;;;;5078881;28;20048;-83
2022/08/11 15:03:11;;;;;;;1.55;0.93;;;32.40;35.50;;;;;;5085402;28;20462;-82
2022/08/11 15:05:42;;;;;;;2.95;0.90;;;32.30;34.90;;;;;;5088386;28;20027;-84
2022/08/11 15:08:11;;;;;;;1.50;0.80;;;32.20;34.90;;;;;;5091859;28;20059;-80
2022/08/11 15:10:37;;;;;;;2.65;1.10;;;32.10;35.10;;;;;;5079818;28;20016;-89
2022/08/11 15:13:03;;;;;;;1.88;1.00;;;32.20;35.10;;;;;;5093598;28;20118;-85
2022/08/11 15:18:18;;;;;;;1.65;0.98;;;32.30;34.80;;;;;;5090483;28;20116;-84
2022/08/11 15:38:02;;;;;;;2.13;1.25;;;33.70;34.10;;;;;;5087761;28;20537;-90
2022/08/11 15:46:32;;;;;;;4.50;1.30;;;37.80;31.60;;;;;;5089806;28;20116;-93
2022/08/11 15:48:59;;;;;;;1.70;1.25;;;41.30;29.10;;;;;;5091303;28;20024;-90
2022/08/11 15:51:46;;;;;;;3.97;1.60;;;41.50;28.80;;;;;;5093892;28;20126;-92
2022/08/11 15:54:21;;;;;;;1.92;1.42;;;39.50;29.10;;;;;;5092900;28;20020;-84
2022/08/11 15:56:49;;;;;;;1.20;1.00;;;37.90;30.10;;;;;;5092706;28;20032;-82
2022/08/11 16:04:50;;;;;;;3.60;0.88;;;35.00;32.00;;;;;;5080845;28;20031;-85
2022/08/11 16:07:24;;;;;;;2.22;0.80;;;34.50;32.50;;;;;;5081711;28;20541;-91
2022/08/11 16:09:59;;;;;;;2.38;1.23;;;34.30;32.70;;;;;;5087906;28;20028;-89
2022/08/11 16:12:31;;;;;;;0.82;0.80;;;34.00;32.70;;;;;;5076892;28;20016;-81
2022/08/11 16:18:01;;;;;;;2.53;0.80;;;33.80;32.70;;;;;;5088330;28;20089;-81
2022/08/11 16:20:28;;;;;;;1.67;1.05;;;33.90;32.90;;;;;;5075840;28;20067;-81
2022/08/11 16:22:59;;;;;;;2.05;0.70;;;33.90;32.60;;;;;;5085898;28;20017;-81
2022/08/11 16:25:25;;;;;;;1.15;0.88;;;33.90;32.40;;;;;;5072635;28;20114;-91
2022/08/11 16:28:15;;;;;;;1.27;0.90;;;33.70;32.70;;;;;;5073480;28;20028;-91
2022/08/11 16:30:45;;;;;;;3.08;1.02;;;33.70;33.20;;;;;;5073197;28;20363;-91
2022/08/11 16:33:11;;;;;;;3.90;0.90;;;33.70;33.30;;;;;;5081878;28;20102;-90
2022/08/11 16:38:38;;;;;;;2.08;0.70;;;33.70;33.60;;;;;;5093230;28;20039;-85
2022/08/11 16:41:10;;;;;;;1.90;1.00;;;33.60;33.40;;;;;;5083125;28;20024;-87
2022/08/11 16:49:30;;;;;;;1.00;0.90;;;33.50;33.50;;;;;;5086505;28;20071;-83
2022/08/11 16:51:56;;;;;;;1.15;0.93;;;33.40;33.40;;;;;;5089231;28;20081;-83
2022/08/11 16:54:22;;;;;;;1.67;1.10;;;33.40;33.30;;;;;;5088017;28;20166;-81
2022/08/11 16:56:52;;;;;;;2.10;1.13;;;33.10;33.50;;;;;;5085768;28;20054;-86
2022/08/11 16:59:21;;;;;;;;;;;33.10;33.60;;;;;;5080853;28;20543;-84
2022/08/11 17:01:51;;;;;;;2.55;0.93;;;33.00;33.60;;;;;;5088291;28;19971;-88
2022/08/11 17:18:41;;;;;;;2.55;0.90;;;32.00;34.70;;;;;;5081292;28;20519;-93
2022/08/11 17:21:14;;;;;;;1.17;0.77;;;31.90;35.00;;;;;;5091189;28;20032;-87
2022/08/11 17:23:48;;;;;;;1.75;1.08;;;31.70;34.90;;;;;;5095180;28;20052;-86
2022/08/11 17:26:53;;;;;;;2.00;1.33;;;31.70;35.30;;;;;;5095661;28;20029;-87
2022/08/11 17:29:23;;;;;;;3.38;1.20;;;31.50;35.60;;;;;;5094999;28;20045;-86
2022/08/11 17:37:21;;;;;;;1.45;1.02;;;31.20;35.70;;;;;;5085826;28;20108;-88
2022/08/11 17:39:49;;;;;;;9.50;5.53;;;31.00;35.80;;;;;;5090596;28;20067;-93
2022/08/11 17:50:34;;;;;;;5.72;2.60;;;30.60;36.20;;;;;;5096204;28;20030;-84
2022/08/11 18:01:19;;;;;;;3.30;1.90;;;30.20;36.60;;;;;;5094769;28;20165;-87
2022/08/11 18:03:46;;;;;;;11.35;3.85;;;30.10;36.60;;;;;;5098213;28;20035;-85
2022/08/11 18:06:13;;;;;;;6.93;2.40;;;30.00;36.80;;;;;;5094229;28;20070;-84
